This is the latest recevied weather packets stored in our database for station/object EA8EE-7. If no packets are shown the sender has not sent any weather packets the latest 10 day(s).
| Time | Temp. | Humidity | Pressure | Rain* | Wind** | Luminosity | Snow |
|---|---|---|---|---|---|---|---|
| 1788549929 | 35.56° C | 33% | 1023.5 hPa | - | - | - | - |
| 1788546928 | 36.67° C | 31% | 1026.3 hPa | - | - | - | - |
| 1788546329 | 36.67° C | 31% | 1026 hPa | - | - | - | - |
| 1788543322 | 35° C | 36% | 1025.8 hPa | - | - | - | - |
| 1788537922 | 35° C | 33% | 1022.6 hPa | - | - | - | - |
| 1788537322 | 35° C | 33% | 1022.8 hPa | - | - | - | - |
| 1788536122 | 35° C | 33% | 1022 hPa | - | - | - | - |
| 1788535522 | 35° C | 33% | 1023.3 hPa | - | - | - | - |
| 1788534322 | 35° C | 33% | 1023 hPa | - | - | - | - |
| 1788532522 | 36.11° C | 32% | 1023 hPa | - | - | - | - |
| 1788531922 | 36.11° C | 32% | 1023.8 hPa | - | - | - | - |
| 1788531008 | 36.67° C | 30% | 1022.1 hPa | - | - | - | - |
| 1788521346 | 41.67° C | 25% | 1024.4 hPa | - | - | - | - |
| 1788520746 | 42.78° C | 23% | 1016.4 hPa | - | - | - | - |
| 1788517746 | 43.33° C | 25% | 1021.9 hPa | - | - | - | - |
| 1788514699 | 36.67° C | 32% | 1026.8 hPa | - | - | - | - |
| 1788514098 | 36.11° C | 33% | 1026.2 hPa | - | - | - | - |
| 1788513498 | 36.11° C | 33% | 1024.6 hPa | - | - | - | - |
| 1788511098 | 35° C | 33% | 1025.8 hPa | - | - | - | - |
| 1788510498 | 35° C | 33% | 1027.1 hPa | - | - | - | - |
| 1788509898 | 35° C | 32% | 1026.4 hPa | - | - | - | - |
| 1788509298 | 35° C | 32% | 1025.6 hPa | - | - | - | - |
| 1788508698 | 35° C | 32% | 1025.2 hPa | - | - | - | - |
| 1788508098 | 35° C | 31% | 1025.3 hPa | - | - | - | - |
| 1788507498 | 35° C | 31% | 1024.8 hPa | - | - | - | - |
* Rain since midnight (hover to see other rain measurements)
** Current wind speed in m/s (hover to see current wind gust speed)